sensor_id;sensor_type;location;lat;lon;timestamp;P1;durP1;ratioP1;P2;durP2;ratioP2
6203;SDS011;3135;42.602;23.468;2023-09-18T00:01:47;27.93;;;15.17;;
6203;SDS011;3135;42.602;23.468;2023-09-18T00:04:13;28.33;;;15.65;;
6203;SDS011;3135;42.602;23.468;2023-09-18T00:06:38;32.00;;;15.65;;
6203;SDS011;3135;42.602;23.468;2023-09-18T00:09:04;28.10;;;15.27;;
6203;SDS011;3135;42.602;23.468;2023-09-18T00:11:30;31.02;;;16.10;;
6203;SDS011;3135;42.602;23.468;2023-09-18T00:13:55;31.53;;;16.43;;
6203;SDS011;3135;42.602;23.468;2023-09-18T00:16:20;33.07;;;16.83;;
6203;SDS011;3135;42.602;23.468;2023-09-18T00:18:46;30.80;;;15.83;;
6203;SDS011;3135;42.602;23.468;2023-09-18T00:21:11;31.00;;;15.60;;
6203;SDS011;3135;42.602;23.468;2023-09-18T00:23:40;32.47;;;15.90;;
6203;SDS011;3135;42.602;23.468;2023-09-18T00:26:05;26.17;;;14.02;;
6203;SDS011;3135;42.602;23.468;2023-09-18T00:28:31;28.27;;;14.77;;
6203;SDS011;3135;42.602;23.468;2023-09-18T00:30:56;26.70;;;14.17;;
6203;SDS011;3135;42.602;23.468;2023-09-18T00:33:22;33.13;;;15.70;;
6203;SDS011;3135;42.602;23.468;2023-09-18T00:35:48;30.47;;;15.53;;
6203;SDS011;3135;42.602;23.468;2023-09-18T00:38:15;29.20;;;15.13;;
6203;SDS011;3135;42.602;23.468;2023-09-18T00:40:40;28.55;;;14.52;;
6203;SDS011;3135;42.602;23.468;2023-09-18T00:43:06;30.20;;;14.13;;
6203;SDS011;3135;42.602;23.468;2023-09-18T00:45:32;28.15;;;14.20;;
6203;SDS011;3135;42.602;23.468;2023-09-18T00:47:58;24.33;;;14.35;;
6203;SDS011;3135;42.602;23.468;2023-09-18T00:50:24;27.87;;;14.70;;
6203;SDS011;3135;42.602;23.468;2023-09-18T00:52:51;29.17;;;14.32;;
6203;SDS011;3135;42.602;23.468;2023-09-18T00:55:17;25.17;;;13.27;;
6203;SDS011;3135;42.602;23.468;2023-09-18T00:57:43;25.92;;;13.20;;
6203;SDS011;3135;42.602;23.468;2023-09-18T01:00:10;23.73;;;13.05;;
6203;SDS011;3135;42.602;23.468;2023-09-18T01:02:42;25.90;;;13.45;;
6203;SDS011;3135;42.602;23.468;2023-09-18T01:05:10;23.15;;;12.93;;
6203;SDS011;3135;42.602;23.468;2023-09-18T01:07:35;24.73;;;12.88;;
6203;SDS011;3135;42.602;23.468;2023-09-18T01:10:01;22.00;;;12.27;;
6203;SDS011;3135;42.602;23.468;2023-09-18T01:12:31;23.07;;;12.60;;
6203;SDS011;3135;42.602;23.468;2023-09-18T01:17:36;23.67;;;12.63;;
6203;SDS011;3135;42.602;23.468;2023-09-18T01:20:06;25.90;;;12.35;;
6203;SDS011;3135;42.602;23.468;2023-09-18T01:22:34;21.20;;;12.32;;
6203;SDS011;3135;42.602;23.468;2023-09-18T01:25:00;20.60;;;11.27;;
6203;SDS011;3135;42.602;23.468;2023-09-18T01:27:25;24.40;;;12.20;;
6203;SDS011;3135;42.602;23.468;2023-09-18T01:29:51;23.83;;;12.90;;
6203;SDS011;3135;42.602;23.468;2023-09-18T01:32:18;20.50;;;12.05;;
6203;SDS011;3135;42.602;23.468;2023-09-18T01:34:51;22.50;;;12.73;;
6203;SDS011;3135;42.602;23.468;2023-09-18T01:37:20;22.00;;;12.02;;
6203;SDS011;3135;42.602;23.468;2023-09-18T01:39:49;23.15;;;12.00;;
6203;SDS011;3135;42.602;23.468;2023-09-18T01:42:16;23.38;;;11.82;;
6203;SDS011;3135;42.602;23.468;2023-09-18T01:44:42;23.20;;;11.65;;
6203;SDS011;3135;42.602;23.468;2023-09-18T01:47:10;22.27;;;11.83;;
6203;SDS011;3135;42.602;23.468;2023-09-18T01:49:38;20.25;;;11.35;;
6203;SDS011;3135;42.602;23.468;2023-09-18T01:52:05;22.23;;;11.63;;
6203;SDS011;3135;42.602;23.468;2023-09-18T01:54:33;22.67;;;12.10;;
6203;SDS011;3135;42.602;23.468;2023-09-18T01:56:59;22.90;;;12.05;;
6203;SDS011;3135;42.602;23.468;2023-09-18T01:59:25;22.40;;;12.40;;
6203;SDS011;3135;42.602;23.468;2023-09-18T02:01:51;26.27;;;12.80;;
6203;SDS011;3135;42.602;23.468;2023-09-18T02:04:17;23.85;;;12.60;;
6203;SDS011;3135;42.602;23.468;2023-09-18T02:06:43;22.63;;;12.37;;
6203;SDS011;3135;42.602;23.468;2023-09-18T02:09:09;23.00;;;12.15;;
6203;SDS011;3135;42.602;23.468;2023-09-18T02:11:40;26.52;;;14.20;;
6203;SDS011;3135;42.602;23.468;2023-09-18T02:14:07;20.75;;;12.02;;
6203;SDS011;3135;42.602;23.468;2023-09-18T02:16:35;22.50;;;11.57;;
6203;SDS011;3135;42.602;23.468;2023-09-18T02:19:02;20.10;;;11.68;;
6203;SDS011;3135;42.602;23.468;2023-09-18T02:21:28;18.23;;;11.32;;
6203;SDS011;3135;42.602;23.468;2023-09-18T02:23:53;20.30;;;11.77;;
6203;SDS011;3135;42.602;23.468;2023-09-18T02:26:20;19.92;;;11.20;;
6203;SDS011;3135;42.602;23.468;2023-09-18T02:28:47;20.00;;;11.68;;
6203;SDS011;3135;42.602;23.468;2023-09-18T02:31:12;18.73;;;11.10;;
6203;SDS011;3135;42.602;23.468;2023-09-18T02:33:38;18.02;;;10.90;;
6203;SDS011;3135;42.602;23.468;2023-09-18T02:36:04;23.23;;;11.47;;
6203;SDS011;3135;42.602;23.468;2023-09-18T02:38:30;21.87;;;11.83;;
6203;SDS011;3135;42.602;23.468;2023-09-18T02:40:56;20.23;;;11.47;;
6203;SDS011;3135;42.602;23.468;2023-09-18T02:43:22;24.10;;;12.20;;
6203;SDS011;3135;42.602;23.468;2023-09-18T02:45:48;21.58;;;12.15;;
6203;SDS011;3135;42.602;23.468;2023-09-18T02:48:14;22.13;;;11.85;;
6203;SDS011;3135;42.602;23.468;2023-09-18T02:50:40;20.92;;;11.45;;
6203;SDS011;3135;42.602;23.468;2023-09-18T02:53:06;21.63;;;10.80;;
6203;SDS011;3135;42.602;23.468;2023-09-18T02:55:34;21.17;;;10.98;;
6203;SDS011;3135;42.602;23.468;2023-09-18T02:57:59;19.40;;;10.53;;
6203;SDS011;3135;42.602;23.468;2023-09-18T03:00:25;20.27;;;10.53;;
6203;SDS011;3135;42.602;23.468;2023-09-18T03:02:50;20.27;;;11.02;;
6203;SDS011;3135;42.602;23.468;2023-09-18T03:05:16;20.83;;;10.45;;
6203;SDS011;3135;42.602;23.468;2023-09-18T03:07:41;22.77;;;10.70;;
6203;SDS011;3135;42.602;23.468;2023-09-18T03:10:07;21.93;;;10.90;;
6203;SDS011;3135;42.602;23.468;2023-09-18T03:12:33;24.87;;;10.37;;
6203;SDS011;3135;42.602;23.468;2023-09-18T03:14:58;19.07;;;10.43;;
6203;SDS011;3135;42.602;23.468;2023-09-18T03:17:24;21.52;;;10.40;;
6203;SDS011;3135;42.602;23.468;2023-09-18T03:19:49;22.40;;;10.33;;
6203;SDS011;3135;42.602;23.468;2023-09-18T03:22:15;18.03;;;9.73;;
6203;SDS011;3135;42.602;23.468;2023-09-18T03:24:41;21.23;;;10.30;;
6203;SDS011;3135;42.602;23.468;2023-09-18T03:27:06;22.20;;;10.67;;
6203;SDS011;3135;42.602;23.468;2023-09-18T03:29:31;19.37;;;9.63;;
6203;SDS011;3135;42.602;23.468;2023-09-18T03:31:57;21.80;;;10.18;;
6203;SDS011;3135;42.602;23.468;2023-09-18T03:34:24;21.30;;;10.53;;
6203;SDS011;3135;42.602;23.468;2023-09-18T03:36:53;20.83;;;10.15;;
6203;SDS011;3135;42.602;23.468;2023-09-18T03:39:19;20.33;;;9.90;;
6203;SDS011;3135;42.602;23.468;2023-09-18T03:41:45;20.38;;;9.52;;
6203;SDS011;3135;42.602;23.468;2023-09-18T03:44:11;24.92;;;10.95;;
6203;SDS011;3135;42.602;23.468;2023-09-18T03:46:36;22.95;;;11.02;;
6203;SDS011;3135;42.602;23.468;2023-09-18T03:49:02;21.00;;;10.87;;
6203;SDS011;3135;42.602;23.468;2023-09-18T03:51:28;22.63;;;11.02;;
6203;SDS011;3135;42.602;23.468;2023-09-18T03:53:54;23.90;;;11.70;;
6203;SDS011;3135;42.602;23.468;2023-09-18T03:56:20;22.37;;;11.67;;
6203;SDS011;3135;42.602;23.468;2023-09-18T03:58:47;26.45;;;11.10;;
6203;SDS011;3135;42.602;23.468;2023-09-18T04:01:14;25.23;;;12.50;;
6203;SDS011;3135;42.602;23.468;2023-09-18T04:03:40;26.58;;;12.43;;
6203;SDS011;3135;42.602;23.468;2023-09-18T04:06:06;25.35;;;12.40;;
6203;SDS011;3135;42.602;23.468;2023-09-18T04:08:31;24.45;;;12.32;;
6203;SDS011;3135;42.602;23.468;2023-09-18T04:10:57;28.27;;;12.98;;
6203;SDS011;3135;42.602;23.468;2023-09-18T04:13:23;26.92;;;11.70;;
6203;SDS011;3135;42.602;23.468;2023-09-18T04:15:49;24.90;;;12.88;;
6203;SDS011;3135;42.602;23.468;2023-09-18T04:18:14;24.98;;;12.15;;
6203;SDS011;3135;42.602;23.468;2023-09-18T04:20:39;26.07;;;12.27;;
6203;SDS011;3135;42.602;23.468;2023-09-18T04:23:24;24.30;;;11.90;;
6203;SDS011;3135;42.602;23.468;2023-09-18T04:25:52;24.98;;;12.27;;
6203;SDS011;3135;42.602;23.468;2023-09-18T04:28:19;23.17;;;12.27;;
6203;SDS011;3135;42.602;23.468;2023-09-18T04:30:46;26.15;;;12.05;;
6203;SDS011;3135;42.602;23.468;2023-09-18T04:33:15;22.45;;;11.68;;
6203;SDS011;3135;42.602;23.468;2023-09-18T04:35:42;22.90;;;11.23;;
6203;SDS011;3135;42.602;23.468;2023-09-18T04:38:08;23.83;;;11.65;;
6203;SDS011;3135;42.602;23.468;2023-09-18T04:40:35;21.88;;;11.20;;
6203;SDS011;3135;42.602;23.468;2023-09-18T04:43:01;23.13;;;11.85;;
6203;SDS011;3135;42.602;23.468;2023-09-18T04:45:29;20.45;;;10.55;;
6203;SDS011;3135;42.602;23.468;2023-09-18T04:47:55;20.30;;;11.20;;
6203;SDS011;3135;42.602;23.468;2023-09-18T04:50:21;22.60;;;11.47;;
6203;SDS011;3135;42.602;23.468;2023-09-18T04:52:47;26.83;;;12.60;;
6203;SDS011;3135;42.602;23.468;2023-09-18T04:55:13;22.20;;;11.37;;
6203;SDS011;3135;42.602;23.468;2023-09-18T04:57:38;21.17;;;10.70;;
6203;SDS011;3135;42.602;23.468;2023-09-18T05:00:04;21.60;;;11.40;;
6203;SDS011;3135;42.602;23.468;2023-09-18T05:02:34;21.40;;;10.60;;
6203;SDS011;3135;42.602;23.468;2023-09-18T05:05:00;21.63;;;10.38;;
6203;SDS011;3135;42.602;23.468;2023-09-18T05:07:25;21.27;;;10.48;;
6203;SDS011;3135;42.602;23.468;2023-09-18T05:09:51;20.95;;;11.10;;
6203;SDS011;3135;42.602;23.468;2023-09-18T05:12:17;24.85;;;11.40;;
6203;SDS011;3135;42.602;23.468;2023-09-18T05:14:43;22.07;;;11.17;;
6203;SDS011;3135;42.602;23.468;2023-09-18T05:17:09;23.42;;;11.88;;
6203;SDS011;3135;42.602;23.468;2023-09-18T05:19:36;21.25;;;10.32;;
6203;SDS011;3135;42.602;23.468;2023-09-18T05:22:01;19.47;;;10.53;;
6203;SDS011;3135;42.602;23.468;2023-09-18T05:24:28;21.00;;;10.20;;
6203;SDS011;3135;42.602;23.468;2023-09-18T05:26:54;24.33;;;10.98;;
6203;SDS011;3135;42.602;23.468;2023-09-18T05:29:20;20.77;;;10.18;;
6203;SDS011;3135;42.602;23.468;2023-09-18T05:31:45;22.50;;;11.07;;
6203;SDS011;3135;42.602;23.468;2023-09-18T05:34:11;21.40;;;11.63;;
6203;SDS011;3135;42.602;23.468;2023-09-18T05:36:37;23.90;;;12.18;;
6203;SDS011;3135;42.602;23.468;2023-09-18T05:39:03;24.02;;;12.27;;
6203;SDS011;3135;42.602;23.468;2023-09-18T05:41:29;25.55;;;11.73;;
6203;SDS011;3135;42.602;23.468;2023-09-18T05:43:56;26.85;;;13.43;;
6203;SDS011;3135;42.602;23.468;2023-09-18T05:46:22;26.50;;;13.23;;
6203;SDS011;3135;42.602;23.468;2023-09-18T05:48:47;29.85;;;13.65;;
6203;SDS011;3135;42.602;23.468;2023-09-18T05:51:13;26.20;;;12.82;;
6203;SDS011;3135;42.602;23.468;2023-09-18T05:53:38;25.60;;;12.03;;
6203;SDS011;3135;42.602;23.468;2023-09-18T05:56:04;22.43;;;11.70;;
6203;SDS011;3135;42.602;23.468;2023-09-18T05:58:33;22.13;;;11.73;;
6203;SDS011;3135;42.602;23.468;2023-09-18T06:00:58;22.80;;;11.07;;
6203;SDS011;3135;42.602;23.468;2023-09-18T06:03:26;25.45;;;12.15;;
6203;SDS011;3135;42.602;23.468;2023-09-18T06:05:55;23.58;;;11.38;;
6203;SDS011;3135;42.602;23.468;2023-09-18T06:08:21;24.90;;;11.60;;
6203;SDS011;3135;42.602;23.468;2023-09-18T06:10:47;23.27;;;11.70;;
6203;SDS011;3135;42.602;23.468;2023-09-18T06:13:13;24.25;;;11.38;;
6203;SDS011;3135;42.602;23.468;2023-09-18T06:15:38;25.90;;;11.73;;
6203;SDS011;3135;42.602;23.468;2023-09-18T06:18:03;25.30;;;11.43;;
6203;SDS011;3135;42.602;23.468;2023-09-18T06:20:29;22.43;;;10.97;;
6203;SDS011;3135;42.602;23.468;2023-09-18T06:22:54;23.93;;;11.67;;
6203;SDS011;3135;42.602;23.468;2023-09-18T06:25:20;24.63;;;11.50;;
6203;SDS011;3135;42.602;23.468;2023-09-18T06:27:46;21.70;;;10.97;;
6203;SDS011;3135;42.602;23.468;2023-09-18T06:30:11;23.40;;;10.70;;
6203;SDS011;3135;42.602;23.468;2023-09-18T06:32:37;21.15;;;10.80;;
6203;SDS011;3135;42.602;23.468;2023-09-18T06:35:02;23.08;;;11.10;;
6203;SDS011;3135;42.602;23.468;2023-09-18T06:37:28;23.27;;;10.75;;
6203;SDS011;3135;42.602;23.468;2023-09-18T06:39:54;23.88;;;11.55;;
6203;SDS011;3135;42.602;23.468;2023-09-18T06:42:21;22.73;;;11.05;;
6203;SDS011;3135;42.602;23.468;2023-09-18T06:44:47;24.03;;;10.70;;
6203;SDS011;3135;42.602;23.468;2023-09-18T06:47:12;21.10;;;10.43;;
6203;SDS011;3135;42.602;23.468;2023-09-18T06:49:39;21.27;;;11.07;;
6203;SDS011;3135;42.602;23.468;2023-09-18T06:52:06;22.13;;;11.00;;
6203;SDS011;3135;42.602;23.468;2023-09-18T06:54:32;25.60;;;11.63;;
6203;SDS011;3135;42.602;23.468;2023-09-18T06:56:58;19.50;;;10.23;;
6203;SDS011;3135;42.602;23.468;2023-09-18T06:59:23;20.43;;;10.80;;
6203;SDS011;3135;42.602;23.468;2023-09-18T07:01:48;20.97;;;11.07;;
6203;SDS011;3135;42.602;23.468;2023-09-18T07:04:14;21.60;;;10.57;;
6203;SDS011;3135;42.602;23.468;2023-09-18T07:06:39;21.67;;;11.73;;
6203;SDS011;3135;42.602;23.468;2023-09-18T07:09:05;20.05;;;10.00;;
6203;SDS011;3135;42.602;23.468;2023-09-18T07:11:32;22.58;;;10.68;;
6203;SDS011;3135;42.602;23.468;2023-09-18T07:13:58;20.10;;;11.07;;
6203;SDS011;3135;42.602;23.468;2023-09-18T07:16:24;20.25;;;10.95;;
6203;SDS011;3135;42.602;23.468;2023-09-18T07:18:50;19.60;;;10.35;;
6203;SDS011;3135;42.602;23.468;2023-09-18T07:21:15;19.57;;;10.43;;
6203;SDS011;3135;42.602;23.468;2023-09-18T07:23:40;21.27;;;9.93;;
6203;SDS011;3135;42.602;23.468;2023-09-18T07:26:06;21.55;;;10.05;;
6203;SDS011;3135;42.602;23.468;2023-09-18T07:28:31;26.80;;;11.10;;
6203;SDS011;3135;42.602;23.468;2023-09-18T07:31:08;19.40;;;10.17;;
6203;SDS011;3135;42.602;23.468;2023-09-18T07:33:34;19.98;;;10.63;;
6203;SDS011;3135;42.602;23.468;2023-09-18T07:36:00;18.93;;;9.80;;
6203;SDS011;3135;42.602;23.468;2023-09-18T07:38:25;17.53;;;9.53;;
6203;SDS011;3135;42.602;23.468;2023-09-18T07:40:51;17.45;;;9.50;;
6203;SDS011;3135;42.602;23.468;2023-09-18T07:43:16;16.80;;;9.33;;
6203;SDS011;3135;42.602;23.468;2023-09-18T07:45:42;17.87;;;9.43;;
6203;SDS011;3135;42.602;23.468;2023-09-18T07:48:07;14.38;;;8.57;;
6203;SDS011;3135;42.602;23.468;2023-09-18T07:50:34;14.35;;;8.82;;
6203;SDS011;3135;42.602;23.468;2023-09-18T07:53:00;15.85;;;8.18;;
6203;SDS011;3135;42.602;23.468;2023-09-18T07:55:26;14.70;;;7.95;;
6203;SDS011;3135;42.602;23.468;2023-09-18T07:57:52;19.90;;;9.10;;
6203;SDS011;3135;42.602;23.468;2023-09-18T08:00:17;14.40;;;8.13;;
6203;SDS011;3135;42.602;23.468;2023-09-18T08:02:43;16.00;;;8.30;;
6203;SDS011;3135;42.602;23.468;2023-09-18T08:05:09;13.00;;;7.90;;
6203;SDS011;3135;42.602;23.468;2023-09-18T08:07:35;12.40;;;7.50;;
6203;SDS011;3135;42.602;23.468;2023-09-18T08:10:02;12.70;;;7.60;;
6203;SDS011;3135;42.602;23.468;2023-09-18T08:12:31;12.00;;;7.28;;
6203;SDS011;3135;42.602;23.468;2023-09-18T08:14:57;13.57;;;7.82;;
6203;SDS011;3135;42.602;23.468;2023-09-18T08:17:24;17.77;;;8.60;;
6203;SDS011;3135;42.602;23.468;2023-09-18T08:19:52;15.30;;;8.27;;
6203;SDS011;3135;42.602;23.468;2023-09-18T08:22:18;14.15;;;7.85;;
6203;SDS011;3135;42.602;23.468;2023-09-18T08:24:46;14.05;;;7.85;;
6203;SDS011;3135;42.602;23.468;2023-09-18T08:27:13;11.03;;;7.13;;
6203;SDS011;3135;42.602;23.468;2023-09-18T08:29:42;12.25;;;7.63;;
6203;SDS011;3135;42.602;23.468;2023-09-18T08:32:08;13.05;;;7.05;;
6203;SDS011;3135;42.602;23.468;2023-09-18T08:34:34;12.63;;;7.30;;
6203;SDS011;3135;42.602;23.468;2023-09-18T08:36:59;13.50;;;7.27;;
6203;SDS011;3135;42.602;23.468;2023-09-18T08:39:25;11.33;;;6.60;;
6203;SDS011;3135;42.602;23.468;2023-09-18T08:41:50;14.33;;;6.77;;
6203;SDS011;3135;42.602;23.468;2023-09-18T08:44:20;15.88;;;7.60;;
6203;SDS011;3135;42.602;23.468;2023-09-18T08:46:50;12.70;;;7.45;;
6203;SDS011;3135;42.602;23.468;2023-09-18T08:49:15;12.23;;;6.83;;
6203;SDS011;3135;42.602;23.468;2023-09-18T08:51:42;16.55;;;9.30;;
6203;SDS011;3135;42.602;23.468;2023-09-18T08:54:08;10.40;;;6.78;;
6203;SDS011;3135;42.602;23.468;2023-09-18T08:56:35;10.85;;;6.57;;
6203;SDS011;3135;42.602;23.468;2023-09-18T08:59:00;10.85;;;7.00;;
6203;SDS011;3135;42.602;23.468;2023-09-18T09:01:26;10.43;;;6.70;;
6203;SDS011;3135;42.602;23.468;2023-09-18T09:03:51;12.23;;;6.97;;
6203;SDS011;3135;42.602;23.468;2023-09-18T09:06:17;13.00;;;7.57;;
6203;SDS011;3135;42.602;23.468;2023-09-18T09:08:42;11.93;;;6.93;;
6203;SDS011;3135;42.602;23.468;2023-09-18T09:11:08;14.25;;;7.50;;
6203;SDS011;3135;42.602;23.468;2023-09-18T09:13:33;11.00;;;6.93;;
6203;SDS011;3135;42.602;23.468;2023-09-18T09:15:59;13.23;;;7.27;;
6203;SDS011;3135;42.602;23.468;2023-09-18T09:18:29;12.77;;;7.05;;
6203;SDS011;3135;42.602;23.468;2023-09-18T09:21:00;12.98;;;7.35;;
6203;SDS011;3135;42.602;23.468;2023-09-18T09:23:49;14.15;;;7.30;;
6203;SDS011;3135;42.602;23.468;2023-09-18T09:26:17;12.27;;;7.03;;
6203;SDS011;3135;42.602;23.468;2023-09-18T09:28:45;11.32;;;6.53;;
6203;SDS011;3135;42.602;23.468;2023-09-18T09:31:11;13.27;;;7.40;;
6203;SDS011;3135;42.602;23.468;2023-09-18T09:33:50;15.00;;;7.90;;
6203;SDS011;3135;42.602;23.468;2023-09-18T09:36:20;13.38;;;7.40;;
6203;SDS011;3135;42.602;23.468;2023-09-18T09:38:46;11.07;;;6.80;;
6203;SDS011;3135;42.602;23.468;2023-09-18T09:41:14;9.63;;;6.33;;
6203;SDS011;3135;42.602;23.468;2023-09-18T09:43:41;10.32;;;6.75;;
6203;SDS011;3135;42.602;23.468;2023-09-18T09:46:08;9.98;;;6.72;;
6203;SDS011;3135;42.602;23.468;2023-09-18T09:48:57;9.38;;;6.00;;
6203;SDS011;3135;42.602;23.468;2023-09-18T09:51:24;8.20;;;5.70;;
6203;SDS011;3135;42.602;23.468;2023-09-18T09:53:49;7.67;;;6.07;;
6203;SDS011;3135;42.602;23.468;2023-09-18T09:56:16;9.68;;;5.78;;
6203;SDS011;3135;42.602;23.468;2023-09-18T09:59:08;7.35;;;5.32;;
6203;SDS011;3135;42.602;23.468;2023-09-18T10:01:33;7.15;;;5.20;;
6203;SDS011;3135;42.602;23.468;2023-09-18T10:04:00;7.47;;;5.75;;
6203;SDS011;3135;42.602;23.468;2023-09-18T10:06:33;7.27;;;5.67;;
6203;SDS011;3135;42.602;23.468;2023-09-18T10:09:00;7.82;;;5.53;;
6203;SDS011;3135;42.602;23.468;2023-09-18T10:11:27;6.20;;;5.15;;
6203;SDS011;3135;42.602;23.468;2023-09-18T10:13:55;7.28;;;5.15;;
6203;SDS011;3135;42.602;23.468;2023-09-18T10:16:30;7.10;;;5.10;;
6203;SDS011;3135;42.602;23.468;2023-09-18T10:24:34;7.57;;;5.00;;
6203;SDS011;3135;42.602;23.468;2023-09-18T10:27:06;7.78;;;5.15;;
6203;SDS011;3135;42.602;23.468;2023-09-18T10:29:34;6.05;;;4.97;;
6203;SDS011;3135;42.602;23.468;2023-09-18T10:32:04;6.28;;;4.75;;
6203;SDS011;3135;42.602;23.468;2023-09-18T10:34:32;6.57;;;5.07;;
6203;SDS011;3135;42.602;23.468;2023-09-18T10:36:59;6.88;;;4.85;;
6203;SDS011;3135;42.602;23.468;2023-09-18T10:39:31;6.38;;;4.80;;
6203;SDS011;3135;42.602;23.468;2023-09-18T10:42:00;5.97;;;4.75;;
6203;SDS011;3135;42.602;23.468;2023-09-18T10:44:27;7.57;;;5.07;;
6203;SDS011;3135;42.602;23.468;2023-09-18T10:46:53;6.55;;;4.53;;
6203;SDS011;3135;42.602;23.468;2023-09-18T10:49:20;7.03;;;5.10;;
6203;SDS011;3135;42.602;23.468;2023-09-18T10:51:47;7.53;;;4.70;;
6203;SDS011;3135;42.602;23.468;2023-09-18T10:54:18;8.48;;;5.18;;
6203;SDS011;3135;42.602;23.468;2023-09-18T10:56:46;5.95;;;4.63;;
6203;SDS011;3135;42.602;23.468;2023-09-18T10:59:13;5.73;;;4.17;;
6203;SDS011;3135;42.602;23.468;2023-09-18T11:01:39;8.35;;;4.32;;
6203;SDS011;3135;42.602;23.468;2023-09-18T11:04:05;6.05;;;4.40;;
6203;SDS011;3135;42.602;23.468;2023-09-18T11:11:51;6.22;;;4.13;;
6203;SDS011;3135;42.602;23.468;2023-09-18T11:14:41;5.60;;;4.50;;
6203;SDS011;3135;42.602;23.468;2023-09-18T11:17:27;5.50;;;4.35;;
6203;SDS011;3135;42.602;23.468;2023-09-18T11:20:03;4.60;;;4.20;;
6203;SDS011;3135;42.602;23.468;2023-09-18T11:22:38;7.38;;;4.22;;
6203;SDS011;3135;42.602;23.468;2023-09-18T11:28:29;5.07;;;4.50;;
6203;SDS011;3135;42.602;23.468;2023-09-18T11:30:55;4.70;;;4.20;;
6203;SDS011;3135;42.602;23.468;2023-09-18T11:36:07;5.78;;;4.10;;
6203;SDS011;3135;42.602;23.468;2023-09-18T11:38:53;4.70;;;4.25;;
6203;SDS011;3135;42.602;23.468;2023-09-18T11:41:26;5.20;;;4.20;;
6203;SDS011;3135;42.602;23.468;2023-09-18T11:46:47;8.25;;;4.45;;
6203;SDS011;3135;42.602;23.468;2023-09-18T11:49:23;6.00;;;4.20;;
6203;SDS011;3135;42.602;23.468;2023-09-18T11:51:51;5.72;;;4.60;;
6203;SDS011;3135;42.602;23.468;2023-09-18T11:54:17;4.43;;;3.95;;
6203;SDS011;3135;42.602;23.468;2023-09-18T11:56:43;5.35;;;4.60;;
6203;SDS011;3135;42.602;23.468;2023-09-18T11:59:09;7.20;;;4.47;;
6203;SDS011;3135;42.602;23.468;2023-09-18T12:01:36;4.88;;;4.30;;
6203;SDS011;3135;42.602;23.468;2023-09-18T12:04:04;5.60;;;4.38;;
6203;SDS011;3135;42.602;23.468;2023-09-18T12:06:34;5.60;;;4.13;;
6203;SDS011;3135;42.602;23.468;2023-09-18T12:09:00;5.55;;;4.50;;
6203;SDS011;3135;42.602;23.468;2023-09-18T12:11:26;4.97;;;4.47;;
6203;SDS011;3135;42.602;23.468;2023-09-18T12:13:52;6.00;;;3.97;;
6203;SDS011;3135;42.602;23.468;2023-09-18T12:16:18;6.40;;;4.67;;
6203;SDS011;3135;42.602;23.468;2023-09-18T12:18:50;7.83;;;4.57;;
6203;SDS011;3135;42.602;23.468;2023-09-18T12:21:16;8.93;;;5.32;;
6203;SDS011;3135;42.602;23.468;2023-09-18T12:23:43;10.23;;;5.03;;
6203;SDS011;3135;42.602;23.468;2023-09-18T12:26:11;8.07;;;4.68;;
6203;SDS011;3135;42.602;23.468;2023-09-18T12:28:40;6.73;;;4.57;;
6203;SDS011;3135;42.602;23.468;2023-09-18T12:31:09;7.30;;;4.20;;
6203;SDS011;3135;42.602;23.468;2023-09-18T12:33:39;5.72;;;4.05;;
6203;SDS011;3135;42.602;23.468;2023-09-18T12:36:05;5.25;;;4.25;;
6203;SDS011;3135;42.602;23.468;2023-09-18T12:38:33;6.03;;;4.05;;
6203;SDS011;3135;42.602;23.468;2023-09-18T12:40:59;9.23;;;4.40;;
6203;SDS011;3135;42.602;23.468;2023-09-18T12:43:37;6.75;;;3.95;;
6203;SDS011;3135;42.602;23.468;2023-09-18T12:46:05;4.18;;;3.72;;
6203;SDS011;3135;42.602;23.468;2023-09-18T12:48:32;8.68;;;4.05;;
6203;SDS011;3135;42.602;23.468;2023-09-18T12:51:05;4.63;;;3.87;;
6203;SDS011;3135;42.602;23.468;2023-09-18T12:53:31;4.38;;;3.90;;
6203;SDS011;3135;42.602;23.468;2023-09-18T12:56:10;6.75;;;3.90;;
6203;SDS011;3135;42.602;23.468;2023-09-18T12:58:41;6.82;;;3.90;;
6203;SDS011;3135;42.602;23.468;2023-09-18T13:01:08;5.05;;;4.00;;
6203;SDS011;3135;42.602;23.468;2023-09-18T13:03:44;6.18;;;3.90;;
6203;SDS011;3135;42.602;23.468;2023-09-18T13:06:17;5.93;;;4.05;;
6203;SDS011;3135;42.602;23.468;2023-09-18T13:08:44;5.50;;;4.18;;
6203;SDS011;3135;42.602;23.468;2023-09-18T13:11:10;5.30;;;3.90;;
6203;SDS011;3135;42.602;23.468;2023-09-18T13:13:41;6.30;;;3.88;;
6203;SDS011;3135;42.602;23.468;2023-09-18T13:16:08;4.27;;;3.87;;
6203;SDS011;3135;42.602;23.468;2023-09-18T13:18:34;5.88;;;4.05;;
6203;SDS011;3135;42.602;23.468;2023-09-18T13:21:00;5.60;;;4.00;;
6203;SDS011;3135;42.602;23.468;2023-09-18T13:23:34;6.93;;;4.18;;
6203;SDS011;3135;42.602;23.468;2023-09-18T13:26:01;4.80;;;4.00;;
6203;SDS011;3135;42.602;23.468;2023-09-18T13:28:28;4.50;;;4.05;;
6203;SDS011;3135;42.602;23.468;2023-09-18T13:30:56;6.22;;;4.20;;
6203;SDS011;3135;42.602;23.468;2023-09-18T13:33:21;6.28;;;3.95;;
6203;SDS011;3135;42.602;23.468;2023-09-18T13:35:48;5.35;;;4.30;;
6203;SDS011;3135;42.602;23.468;2023-09-18T13:38:14;6.97;;;4.43;;
6203;SDS011;3135;42.602;23.468;2023-09-18T13:40:40;6.65;;;4.30;;
6203;SDS011;3135;42.602;23.468;2023-09-18T13:43:07;4.70;;;4.27;;
6203;SDS011;3135;42.602;23.468;2023-09-18T13:45:34;4.43;;;4.03;;
6203;SDS011;3135;42.602;23.468;2023-09-18T13:48:01;6.75;;;4.75;;
6203;SDS011;3135;42.602;23.468;2023-09-18T13:50:27;5.70;;;4.57;;
6203;SDS011;3135;42.602;23.468;2023-09-18T13:52:52;5.80;;;4.10;;
6203;SDS011;3135;42.602;23.468;2023-09-18T13:55:19;5.20;;;3.90;;
6203;SDS011;3135;42.602;23.468;2023-09-18T13:57:45;4.78;;;4.38;;
6203;SDS011;3135;42.602;23.468;2023-09-18T14:00:10;5.43;;;4.00;;
6203;SDS011;3135;42.602;23.468;2023-09-18T14:02:36;5.07;;;4.10;;
6203;SDS011;3135;42.602;23.468;2023-09-18T14:05:03;4.53;;;4.13;;
6203;SDS011;3135;42.602;23.468;2023-09-18T14:07:29;5.03;;;4.40;;
6203;SDS011;3135;42.602;23.468;2023-09-18T14:09:54;4.30;;;3.90;;
6203;SDS011;3135;42.602;23.468;2023-09-18T14:12:20;4.37;;;3.90;;
6203;SDS011;3135;42.602;23.468;2023-09-18T14:14:46;4.77;;;4.10;;
6203;SDS011;3135;42.602;23.468;2023-09-18T14:17:11;5.20;;;4.20;;
6203;SDS011;3135;42.602;23.468;2023-09-18T14:19:37;4.38;;;3.97;;
6203;SDS011;3135;42.602;23.468;2023-09-18T14:22:03;5.22;;;4.47;;
6203;SDS011;3135;42.602;23.468;2023-09-18T14:24:33;5.93;;;4.00;;
6203;SDS011;3135;42.602;23.468;2023-09-18T14:27:02;4.80;;;4.00;;
6203;SDS011;3135;42.602;23.468;2023-09-18T14:29:29;4.60;;;4.20;;
6203;SDS011;3135;42.602;23.468;2023-09-18T14:31:58;4.80;;;4.15;;
6203;SDS011;3135;42.602;23.468;2023-09-18T14:34:24;7.32;;;4.28;;
6203;SDS011;3135;42.602;23.468;2023-09-18T14:36:50;4.65;;;4.00;;
6203;SDS011;3135;42.602;23.468;2023-09-18T14:39:15;6.83;;;4.23;;
6203;SDS011;3135;42.602;23.468;2023-09-18T14:41:41;4.23;;;3.80;;
6203;SDS011;3135;42.602;23.468;2023-09-18T14:44:08;5.80;;;4.20;;
6203;SDS011;3135;42.602;23.468;2023-09-18T14:46:35;5.53;;;3.80;;
6203;SDS011;3135;42.602;23.468;2023-09-18T14:49:02;4.25;;;3.85;;
6203;SDS011;3135;42.602;23.468;2023-09-18T14:51:28;6.60;;;4.22;;
6203;SDS011;3135;42.602;23.468;2023-09-18T14:53:54;4.38;;;3.97;;
6203;SDS011;3135;42.602;23.468;2023-09-18T14:56:20;5.70;;;4.20;;
6203;SDS011;3135;42.602;23.468;2023-09-18T14:58:47;6.80;;;4.18;;
6203;SDS011;3135;42.602;23.468;2023-09-18T15:01:12;5.80;;;4.40;;
6203;SDS011;3135;42.602;23.468;2023-09-18T15:03:39;4.70;;;4.30;;
6203;SDS011;3135;42.602;23.468;2023-09-18T15:06:05;5.75;;;4.57;;
6203;SDS011;3135;42.602;23.468;2023-09-18T15:08:32;11.02;;;5.50;;